windsock image

Welcome to Bigfield Strip.

anemometer image
     

 Help for dials.  
 
Local Met:

Wind:   
10 Min average:  
208 ° / 5.8 kts (5.2)
231° / 4.1

Temperature:  
21.3°C C
Dew Point:  
14.7°C C
QNH:  
Trend:  
1006.9 mb mb
-0.3mb/hr
BigField Strip. This image updates approximately every minute, it can have a two minute delay.  
 

Humidity:  
66 %
Sunrise:   04:25z
Sunset:   19:53z
Updated:  
  UTC
 
   More met info, trends, radar, history etc. available here   

LUTON Metar   EGGW 011120Z 19007KT 130V230 9999 SCT035 23/12 Q1008
 
  TAF   2014/08/01 12:15 TAF TAF EGGW 011058Z 0112/0212 19010KT 9999 SCT025 PROB40 TEMPO 0112/0117 7000 SHRA TEMPO 0123/0212 7000 SHRA BECMG 0201/0204 12006KT TEMPO 0203/0206 4000 +SHRA BKN010 BKN020CB TEMPO 0206/0212 BKN012 BECMG 0210/0212 18012KT
 
BENSON Metar   EGUB 011050Z 18009KT 9999 FEW030 OVC050 21/12 Q1008 BLU NOSIG
 
  TAF   2014/08/01 12:03 TAF EGUB 011022Z 0112/0119 17010KT 9999 SCT040 PROB30 TEMPO 0112/0119 7000 SHRA SCT022
 
Big Field view 1 icon   Big Field view 2 icon   Big Field view 3 icon   Chart AL3a in PDF icon   Chart AL3a in Word icon

WARNING:
This information is provided by the Airstrip unofficial weather station, DO NOT depend on the data provided here for any purpose.
This page is updated for latest Metars & TAF's every 5 minutes. Refresh the browser to check for the lastest.
Page designed for a minimum browser size of 1024x768.
© Copyright 2014 BigField Strip. This page auto generated 11:46 UTC - 01/08/2014   Contact Us
Valid HTML 4.01 Transitional     Windows uptime: 4 Days 9 Hours 14 Minutes 1 Seconds    WD started: 02:38 28/07/14    Free memory: 1517MB     Valid CSS!